Time;durP1;ratioP1;P1;durP2;ratioP2;P2;SDS_P1;SDS_P2;PMS_P1;PMS_P2;Temp;Humidity;BMP_temperature;BMP_pressure;BME280_temperature;BME280_humidity;BME280_pressure;Samples;Min_cycle;Max_cycle;Signal;HPM_P1;HPM_P2
2021/03/30 00:00:51;;;;;;;9.05;2.30;;;3.20;46.40;;;;;;5106827;28;20019;-78
2021/03/30 00:03:17;;;;;;;8.63;3.08;;;3.20;46.10;;;;;;5095941;28;20035;-78
2021/03/30 00:05:42;;;;;;;6.93;3.03;;;3.20;46.00;;;;;;5107047;28;20016;-79
2021/03/30 00:08:08;;;;;;;4.43;2.50;;;3.20;46.10;;;;;;5100594;28;20089;-78
2021/03/30 00:10:40;;;;;;;3.60;2.55;;;3.20;46.00;;;;;;5104479;28;20023;-79
2021/03/30 00:13:07;;;;;;;3.80;2.65;;;3.20;45.70;;;;;;5102898;28;20480;-78
2021/03/30 00:15:32;;;;;;;8.07;3.00;;;3.20;45.60;;;;;;5095911;28;20024;-79
2021/03/30 00:17:58;;;;;;;11.10;4.93;;;3.20;45.30;;;;;;5096776;28;20027;-80
2021/03/30 00:20:25;;;;;;;6.00;2.58;;;3.30;45.30;;;;;;5108171;28;20091;-79
2021/03/30 00:22:51;;;;;;;3.77;2.57;;;3.30;45.20;;;;;;5102669;28;20018;-81
2021/03/30 00:25:17;;;;;;;3.65;2.17;;;3.30;45.20;;;;;;5101712;28;20260;-78
2021/03/30 00:27:43;;;;;;;4.45;2.47;;;3.20;45.20;;;;;;5101538;28;20073;-80
2021/03/30 00:30:10;;;;;;;5.47;3.00;;;3.20;45.20;;;;;;5094189;28;20024;-80
2021/03/30 00:32:37;;;;;;;5.10;2.78;;;3.20;45.30;;;;;;5106320;28;20503;-79
2021/03/30 00:35:04;;;;;;;7.53;3.15;;;3.10;45.40;;;;;;5099306;28;20030;-78
2021/03/30 00:37:30;;;;;;;5.78;2.38;;;3.10;45.60;;;;;;5105012;28;20103;-78
2021/03/30 00:39:56;;;;;;;9.30;2.90;;;3.10;45.90;;;;;;5109754;28;20058;-79
2021/03/30 00:42:24;;;;;;;7.07;2.78;;;3.10;46.10;;;;;;5109747;28;20027;-80
2021/03/30 00:44:50;;;;;;;5.82;2.42;;;3.00;46.20;;;;;;5106347;28;20027;-78
2021/03/30 00:47:17;;;;;;;6.40;2.28;;;3.00;46.30;;;;;;5110265;28;20468;-79
2021/03/30 00:49:44;;;;;;;3.50;2.50;;;3.00;45.90;;;;;;5106548;28;20011;-78
2021/03/30 00:52:10;;;;;;;7.90;3.00;;;3.00;45.80;;;;;;5099434;28;20361;-78
2021/03/30 00:54:37;;;;;;;6.50;2.55;;;3.00;45.80;;;;;;5102207;28;20334;-78
2021/03/30 00:57:04;;;;;;;28.27;6.78;;;3.10;45.80;;;;;;5106310;28;20166;-78
2021/03/30 00:59:30;;;;;;;11.52;3.60;;;3.00;45.80;;;;;;5105632;28;20392;-79
2021/03/30 01:01:56;;;;;;;6.28;2.35;;;3.10;45.90;;;;;;5103993;28;20024;-78
2021/03/30 01:04:23;;;;;;;7.45;2.67;;;3.00;45.90;;;;;;5105230;28;20515;-79
2021/03/30 01:06:49;;;;;;;3.58;2.67;;;3.00;46.00;;;;;;5102970;28;20392;-78
2021/03/30 01:09:35;;;;;;;7.53;2.95;;;3.10;46.30;;;;;;5092360;28;20052;-80
2021/03/30 01:12:36;;;;;;;3.50;2.30;;;3.10;46.40;;;;;;5092435;28;20028;-79
2021/03/30 01:15:11;;;;;;;4.30;2.58;;;3.10;46.50;;;;;;5073530;28;20035;-78
2021/03/30 01:18:00;;;;;;;6.85;3.05;;;3.00;46.60;;;;;;5092347;28;20500;-79
2021/03/30 01:21:03;;;;;;;7.15;3.00;;;3.00;46.90;;;;;;5053622;28;20036;-78
2021/03/30 01:23:52;;;;;;;5.80;3.45;;;2.90;47.10;;;;;;5091415;28;20123;-78
2021/03/30 01:26:41;;;;;;;5.85;2.33;;;2.90;47.30;;;;;;5091545;28;20431;-78
2021/03/30 01:29:18;;;;;;;4.20;2.42;;;2.90;47.60;;;;;;5080411;28;20020;-79
2021/03/30 01:31:53;;;;;;;4.95;2.40;;;2.90;47.70;;;;;;5092160;28;20380;-79
2021/03/30 01:34:21;;;;;;;4.40;2.97;;;2.90;48.20;;;;;;5092693;28;20023;-78
2021/03/30 01:36:52;;;;;;;5.28;2.90;;;2.90;48.20;;;;;;5092513;28;20024;-78
2021/03/30 01:39:19;;;;;;;8.07;3.20;;;2.90;48.30;;;;;;5092778;28;20036;-77
2021/03/30 01:41:52;;;;;;;4.78;3.28;;;3.00;48.30;;;;;;5092435;28;20127;-78
2021/03/30 01:44:20;;;;;;;7.82;3.45;;;2.90;48.40;;;;;;5078681;28;20023;-78
2021/03/30 01:46:47;;;;;;;4.43;2.30;;;2.90;48.40;;;;;;5092689;28;20050;-78
2021/03/30 01:49:19;;;;;;;6.10;3.07;;;2.90;48.50;;;;;;5090846;28;20016;-78
2021/03/30 01:51:46;;;;;;;5.05;2.92;;;2.80;48.70;;;;;;5092894;28;20097;-78
2021/03/30 01:54:13;;;;;;;4.22;2.92;;;2.80;48.80;;;;;;5092552;28;20016;-79
2021/03/30 01:56:41;;;;;;;4.40;2.83;;;2.80;49.10;;;;;;5092037;28;20031;-79
2021/03/30 01:59:13;;;;;;;4.40;3.13;;;2.80;49.20;;;;;;5091831;28;20092;-78
2021/03/30 02:01:42;;;;;;;3.42;2.10;;;2.80;49.20;;;;;;5092061;28;20050;-79
2021/03/30 02:04:09;;;;;;;5.22;2.78;;;2.80;49.40;;;;;;5090581;28;20035;-79
2021/03/30 02:06:41;;;;;;;4.68;2.85;;;2.80;49.40;;;;;;5092103;28;20099;-78
2021/03/30 02:09:13;;;;;;;6.35;2.75;;;2.80;49.40;;;;;;5095512;28;20044;-78
2021/03/30 02:11:46;;;;;;;5.32;3.38;;;2.80;49.40;;;;;;5095762;28;20020;-79
2021/03/30 02:14:16;;;;;;;6.57;2.88;;;2.80;49.50;;;;;;5095725;28;20043;-78
2021/03/30 02:17:20;;;;;;;6.15;3.20;;;2.80;49.60;;;;;;5080935;28;20086;-78
2021/03/30 02:19:57;;;;;;;8.43;3.47;;;2.80;50.00;;;;;;5095266;28;20036;-78
2021/03/30 02:22:37;;;;;;;7.00;3.63;;;2.70;50.30;;;;;;5095577;28;20376;-80
2021/03/30 02:25:07;;;;;;;5.35;4.30;;;2.70;50.70;;;;;;5095471;28;20032;-79
2021/03/30 02:27:41;;;;;;;5.38;2.40;;;2.70;51.00;;;;;;5099038;28;20012;-80
2021/03/30 02:30:11;;;;;;;7.53;3.08;;;2.70;51.10;;;;;;5095220;28;20527;-79
2021/03/30 02:32:41;;;;;;;6.68;3.25;;;2.70;51.00;;;;;;5098793;28;20069;-79
2021/03/30 02:35:13;;;;;;;4.20;3.17;;;2.70;51.10;;;;;;5095255;28;20020;-78
2021/03/30 02:37:39;;;;;;;9.63;4.57;;;2.70;51.10;;;;;;5095299;28;20020;-78
2021/03/30 02:40:09;;;;;;;6.85;3.85;;;2.70;51.20;;;;;;5108107;28;20051;-77
2021/03/30 02:42:36;;;;;;;8.00;3.42;;;2.60;51.00;;;;;;5095241;28;20016;-79
2021/03/30 02:45:09;;;;;;;7.32;3.08;;;2.60;51.30;;;;;;5095026;28;20048;-78
2021/03/30 02:47:36;;;;;;;8.27;3.20;;;2.60;51.40;;;;;;5095181;28;20058;-78
2021/03/30 02:50:02;;;;;;;5.28;3.53;;;2.60;51.80;;;;;;5095023;28;20178;-80
2021/03/30 02:52:30;;;;;;;8.02;3.20;;;2.60;52.00;;;;;;5095876;28;20052;-79
2021/03/30 02:55:01;;;;;;;7.78;3.20;;;2.60;51.60;;;;;;5096621;28;20123;-80
2021/03/30 02:57:27;;;;;;;11.02;3.80;;;2.60;51.70;;;;;;5096977;28;20021;-79
2021/03/30 02:59:54;;;;;;;9.05;3.97;;;2.60;51.90;;;;;;5095451;28;20035;-79
2021/03/30 03:02:28;;;;;;;6.68;3.53;;;2.50;52.10;;;;;;5099610;28;20035;-80
2021/03/30 03:05:07;;;;;;;5.68;3.20;;;2.50;52.40;;;;;;5096297;28;20028;-80
2021/03/30 03:07:34;;;;;;;7.97;2.90;;;2.50;52.50;;;;;;5093622;28;20047;-79
2021/03/30 03:10:02;;;;;;;7.18;3.05;;;2.50;52.70;;;;;;5093991;28;20476;-79
2021/03/30 03:12:31;;;;;;;10.73;5.00;;;2.50;53.10;;;;;;5094555;28;20031;-80
2021/03/30 03:15:01;;;;;;;5.28;3.42;;;2.40;53.60;;;;;;5093052;28;20476;-81
2021/03/30 03:17:30;;;;;;;9.68;3.78;;;2.40;53.50;;;;;;5094226;28;20396;-80
2021/03/30 03:19:58;;;;;;;7.15;3.30;;;2.50;53.70;;;;;;5094123;28;20047;-80
2021/03/30 03:22:26;;;;;;;8.70;3.85;;;2.40;53.80;;;;;;5094439;28;20469;-80
2021/03/30 03:24:52;;;;;;;8.93;4.07;;;2.40;53.80;;;;;;5094226;28;20507;-80
2021/03/30 03:27:18;;;;;;;18.48;4.20;;;2.40;54.00;;;;;;5094343;28;20397;-80
2021/03/30 03:29:48;;;;;;;5.28;3.58;;;2.40;53.80;;;;;;5094042;28;20445;-81
2021/03/30 03:32:14;;;;;;;8.20;3.85;;;2.40;53.60;;;;;;5094088;28;20033;-80
2021/03/30 03:34:42;;;;;;;7.23;3.70;;;2.40;53.90;;;;;;5093984;28;20048;-79
2021/03/30 03:37:09;;;;;;;15.02;4.28;;;2.40;53.60;;;;;;5094179;28;20055;-80
2021/03/30 03:39:35;;;;;;;9.52;3.80;;;2.50;53.50;;;;;;5094174;28;20047;-80
2021/03/30 03:42:19;;;;;;;7.90;4.18;;;2.50;53.60;;;;;;5094052;28;20385;-80
2021/03/30 03:44:44;;;;;;;14.07;6.20;;;2.60;53.50;;;;;;5094104;28;20129;-81
2021/03/30 03:47:14;;;;;;;10.32;4.57;;;2.60;53.40;;;;;;5099612;28;20032;-78
2021/03/30 03:49:39;;;;;;;8.55;3.97;;;2.60;53.40;;;;;;5095861;28;20030;-81
2021/03/30 03:52:12;;;;;;;5.90;3.80;;;2.60;53.40;;;;;;5093981;28;20095;-79
2021/03/30 03:54:47;;;;;;;6.53;3.70;;;2.70;52.90;;;;;;5094228;28;20708;-80
2021/03/30 03:57:17;;;;;;;6.53;3.83;;;2.70;52.50;;;;;;5093784;28;20051;-79
2021/03/30 03:59:45;;;;;;;6.93;3.95;;;2.80;51.90;;;;;;5093796;28;20090;-78
2021/03/30 04:02:23;;;;;;;4.72;3.22;;;2.80;51.60;;;;;;5093647;28;20024;-81
2021/03/30 04:05:11;;;;;;;;;;;2.90;51.40;;;;;;5094244;28;20113;-80
2021/03/30 04:07:57;;;;;;;5.78;3.25;;;2.90;50.90;;;;;;5093911;28;19916;-81
2021/03/30 04:10:24;;;;;;;7.22;3.33;;;2.90;50.80;;;;;;5093971;28;20024;-81
2021/03/30 04:12:51;;;;;;;9.40;3.15;;;2.90;50.60;;;;;;5092465;28;20468;-81
2021/03/30 04:15:22;;;;;;;11.38;3.80;;;3.00;50.30;;;;;;5092135;28;20051;-80
2021/03/30 04:17:48;;;;;;;8.80;3.55;;;3.10;50.20;;;;;;5093331;28;20106;-80
2021/03/30 04:20:18;;;;;;;14.93;4.25;;;3.20;50.10;;;;;;5093629;28;20039;-81
2021/03/30 04:22:55;;;;;;;8.85;4.32;;;3.40;49.10;;;;;;5093441;28;20031;-80
2021/03/30 04:25:22;;;;;;;9.07;3.28;;;3.80;48.20;;;;;;5079560;28;20028;-82
2021/03/30 04:27:49;;;;;;;10.73;3.67;;;4.20;47.20;;;;;;5093688;28;20024;-80
2021/03/30 04:30:17;;;;;;;9.55;3.63;;;4.50;45.70;;;;;;5092523;28;20145;-84
2021/03/30 04:32:43;;;;;;;5.47;3.53;;;4.90;45.10;;;;;;5093465;28;20028;-81
2021/03/30 04:35:10;;;;;;;6.18;3.38;;;5.40;44.50;;;;;;5093100;28;20070;-80
2021/03/30 04:37:37;;;;;;;20.08;3.70;;;5.80;43.20;;;;;;5093279;28;20031;-81
2021/03/30 04:40:08;;;;;;;13.35;3.47;;;6.20;42.20;;;;;;5086543;28;20039;-82
2021/03/30 04:42:34;;;;;;;11.25;3.45;;;6.50;40.70;;;;;;5087551;28;20020;-82
2021/03/30 04:44:59;;;;;;;9.35;3.17;;;6.60;40.10;;;;;;5096466;28;20401;-83
2021/03/30 04:47:28;;;;;;;6.40;3.00;;;6.90;39.50;;;;;;5099388;28;20016;-81
2021/03/30 04:49:54;;;;;;;12.10;3.35;;;7.10;38.80;;;;;;5096956;28;20388;-81
2021/03/30 04:52:20;;;;;;;8.85;4.35;;;6.90;38.10;;;;;;5096769;28;20016;-81
2021/03/30 04:54:45;;;;;;;12.82;3.85;;;6.40;38.50;;;;;;5097096;28;20058;-82
2021/03/30 04:57:11;;;;;;;11.13;3.00;;;6.00;39.10;;;;;;5101992;28;20015;-80
2021/03/30 04:59:37;;;;;;;7.72;2.67;;;5.60;38.70;;;;;;5092646;28;20028;-81
2021/03/30 05:02:03;;;;;;;10.45;3.15;;;5.30;39.10;;;;;;5097115;28;20257;-80
2021/03/30 05:04:29;;;;;;;12.68;3.08;;;5.00;39.50;;;;;;5099563;28;20019;-81
2021/03/30 05:06:54;;;;;;;12.15;3.63;;;4.80;39.70;;;;;;5096894;28;20099;-81
2021/03/30 05:09:21;;;;;;;9.57;3.17;;;4.60;40.00;;;;;;5100493;28;20101;-82
2021/03/30 05:11:47;;;;;;;10.88;2.92;;;4.50;40.20;;;;;;5096493;28;20023;-80
2021/03/30 05:14:12;;;;;;;4.82;2.63;;;4.40;40.60;;;;;;5100152;28;20019;-81
2021/03/30 05:16:38;;;;;;;15.82;3.13;;;4.30;40.90;;;;;;5092306;28;20137;-80
2021/03/30 05:19:06;;;;;;;5.97;3.20;;;4.20;41.00;;;;;;5092231;28;20445;-81
2021/03/30 05:21:32;;;;;;;9.13;2.75;;;4.10;41.20;;;;;;5090855;28;20081;-81
2021/03/30 05:23:58;;;;;;;8.02;3.70;;;4.10;41.50;;;;;;5092404;28;20028;-81
2021/03/30 05:26:24;;;;;;;11.38;3.28;;;4.10;41.70;;;;;;5092141;28;20025;-80
2021/03/30 05:28:50;;;;;;;7.80;2.80;;;4.20;42.20;;;;;;5092211;28;20027;-81
2021/03/30 05:31:20;;;;;;;19.02;3.55;;;4.30;42.70;;;;;;5090704;28;20028;-81
2021/03/30 05:33:45;;;;;;;13.20;4.43;;;4.40;43.60;;;;;;5104721;28;20484;-81
2021/03/30 05:36:11;;;;;;;10.73;3.22;;;4.50;43.90;;;;;;5092414;28;20063;-80
2021/03/30 05:38:37;;;;;;;13.07;3.17;;;4.60;43.30;;;;;;5091969;28;20068;-80
2021/03/30 05:41:06;;;;;;;11.93;6.80;;;4.70;42.90;;;;;;5092778;28;20031;-80
2021/03/30 05:43:32;;;;;;;8.38;2.75;;;4.80;43.00;;;;;;5096594;28;20016;-81
2021/03/30 05:46:04;;;;;;;7.38;3.05;;;4.80;43.10;;;;;;5096233;28;20384;-80
2021/03/30 05:48:31;;;;;;;12.38;3.13;;;4.80;43.70;;;;;;5095235;28;20051;-81
2021/03/30 05:51:00;;;;;;;12.10;3.60;;;4.90;43.50;;;;;;5098711;28;20016;-80
2021/03/30 05:53:27;;;;;;;8.05;3.90;;;5.10;43.40;;;;;;5096637;28;20024;-83
2021/03/30 05:55:59;;;;;;;7.25;2.97;;;5.20;43.60;;;;;;5097152;28;20145;-81
2021/03/30 05:58:30;;;;;;;13.15;3.40;;;5.20;43.70;;;;;;5095608;28;20020;-81
2021/03/30 06:00:58;;;;;;;12.45;3.67;;;5.30;43.90;;;;;;5082685;28;20024;-81
2021/03/30 06:03:30;;;;;;;7.30;3.20;;;5.40;44.10;;;;;;5098159;28;20024;-82
2021/03/30 06:06:00;;;;;;;8.10;3.45;;;5.60;44.00;;;;;;5097589;28;20020;-81
2021/03/30 06:08:28;;;;;;;9.18;2.75;;;5.70;44.00;;;;;;5095015;28;20056;-81
2021/03/30 06:10:58;;;;;;;11.82;3.10;;;5.80;43.80;;;;;;5095823;28;20039;-82
2021/03/30 06:13:44;;;;;;;6.72;2.70;;;5.70;44.30;;;;;;5094844;28;20062;-82
2021/03/30 06:16:24;;;;;;;9.98;4.03;;;5.80;44.50;;;;;;5091401;28;20108;-81
2021/03/30 06:19:00;;;;;;;9.07;4.05;;;5.90;44.30;;;;;;5095726;28;20028;-82
2021/03/30 06:21:26;;;;;;;9.52;3.88;;;6.10;43.90;;;;;;5095289;28;20031;-82
2021/03/30 06:23:52;;;;;;;18.13;4.55;;;6.30;43.80;;;;;;5095413;28;20349;-81
2021/03/30 06:26:18;;;;;;;7.20;3.35;;;6.30;43.50;;;;;;5095250;28;20106;-81
2021/03/30 06:28:49;;;;;;;8.20;2.65;;;6.50;42.50;;;;;;5095488;28;20465;-81
2021/03/30 06:31:16;;;;;;;10.50;3.42;;;6.50;41.30;;;;;;5095246;28;20024;-80
2021/03/30 06:33:57;;;;;;;10.20;4.30;;;6.60;41.40;;;;;;5095526;28;20381;-81
2021/03/30 06:36:25;;;;;;;13.43;4.18;;;6.80;41.30;;;;;;5095264;28;20105;-82
2021/03/30 06:38:57;;;;;;;11.88;4.43;;;7.10;41.10;;;;;;5094918;28;20038;-80
2021/03/30 06:44:25;;;;;;;11.48;3.83;;;7.30;39.80;;;;;;5081062;28;20388;-82
2021/03/30 06:46:55;;;;;;;;;;;7.30;40.00;;;;;;5095357;28;20023;-81
2021/03/30 06:49:22;;;;;;;10.00;3.03;;;7.20;40.70;;;;;;5095433;28;19904;-81
2021/03/30 06:51:49;;;;;;;6.32;3.20;;;7.20;40.00;;;;;;5095129;28;20101;-81
2021/03/30 06:54:15;;;;;;;11.95;4.55;;;7.00;39.10;;;;;;5094455;28;20096;-81
2021/03/30 06:56:58;;;;;;;8.75;3.70;;;7.00;39.40;;;;;;5094914;28;20107;-81
2021/03/30 06:59:27;;;;;;;7.18;3.25;;;7.00;38.80;;;;;;5094067;28;20046;-78
2021/03/30 07:01:55;;;;;;;6.53;2.53;;;6.70;38.90;;;;;;5108103;28;20030;-83
2021/03/30 07:04:21;;;;;;;8.70;2.65;;;6.80;39.00;;;;;;5111438;28;20030;-83
2021/03/30 07:06:54;;;;;;;8.77;3.13;;;6.70;38.80;;;;;;5106700;28;20024;-83
2021/03/30 07:09:21;;;;;;;6.72;2.40;;;6.80;39.00;;;;;;5112550;28;20514;-82
2021/03/30 07:11:48;;;;;;;13.70;2.92;;;7.50;38.10;;;;;;5102796;28;20518;-83
2021/03/30 07:14:14;;;;;;;8.60;3.10;;;9.10;36.60;;;;;;5105883;28;20019;-82
2021/03/30 07:17:01;;;;;;;5.18;2.65;;;11.00;33.70;;;;;;5110414;28;20039;-82
2021/03/30 07:19:34;;;;;;;7.70;3.50;;;12.80;31.80;;;;;;5096082;28;20043;-83
2021/03/30 07:22:05;;;;;;;8.05;3.35;;;14.20;29.40;;;;;;5094846;28;20112;-84
2021/03/30 07:24:56;;;;;;;14.38;4.78;;;14.80;28.00;;;;;;5094834;28;20085;-82
2021/03/30 07:27:27;;;;;;;24.02;7.05;;;15.00;28.40;;;;;;5084666;28;20107;-84
2021/03/30 07:29:57;;;;;;;14.68;5.20;;;15.60;27.80;;;;;;5094252;28;20032;-84
2021/03/30 07:32:55;;;;;;;16.13;4.78;;;16.30;27.10;;;;;;5094986;28;20023;-84
2021/03/30 07:35:22;;;;;;;7.85;3.67;;;16.30;27.10;;;;;;5095458;28;20020;-81
2021/03/30 07:38:03;;;;;;;13.18;4.03;;;16.30;26.20;;;;;;5096773;28;20384;-82
2021/03/30 07:40:30;;;;;;;10.43;3.38;;;15.50;26.50;;;;;;5096679;28;20043;-82
2021/03/30 07:43:03;;;;;;;10.93;3.90;;;15.40;26.90;;;;;;5095437;28;20533;-84
2021/03/30 07:45:32;;;;;;;9.63;3.03;;;15.30;27.40;;;;;;5094949;28;20284;-82
2021/03/30 07:47:59;;;;;;;23.98;4.43;;;15.10;27.00;;;;;;5096301;28;20020;-83
2021/03/30 07:51:06;;;;;;;9.27;3.00;;;15.00;26.90;;;;;;5093843;28;20020;-81
2021/03/30 07:53:54;;;;;;;12.77;3.17;;;14.80;27.10;;;;;;5094386;28;20389;-82
2021/03/30 07:56:26;;;;;;;6.50;2.75;;;15.20;27.20;;;;;;5095451;28;20107;-84
2021/03/30 07:58:54;;;;;;;9.27;3.08;;;15.60;27.20;;;;;;5094690;28;20032;-82
2021/03/30 08:01:22;;;;;;;10.10;3.63;;;15.10;27.20;;;;;;5095230;28;20380;-84
2021/03/30 08:03:51;;;;;;;10.30;3.92;;;14.60;27.50;;;;;;5094624;28;20020;-83
2021/03/30 08:06:27;;;;;;;8.88;3.40;;;14.30;28.50;;;;;;5094648;28;20024;-84
2021/03/30 08:09:12;;;;;;;8.32;4.03;;;14.40;28.80;;;;;;5091852;28;20101;-83
2021/03/30 08:11:46;;;;;;;6.25;3.58;;;14.80;28.80;;;;;;5093722;28;20035;-84
2021/03/30 08:14:26;;;;;;;7.55;3.65;;;14.80;28.60;;;;;;5093566;28;20719;-84
2021/03/30 08:16:55;;;;;;;12.52;4.43;;;14.30;29.00;;;;;;5080777;28;20024;-83
2021/03/30 08:19:24;;;;;;;8.38;3.45;;;13.90;29.30;;;;;;5093422;28;20055;-82
2021/03/30 08:22:02;;;;;;;5.70;3.25;;;13.60;29.40;;;;;;5093533;28;20040;-82
2021/03/30 08:24:45;;;;;;;7.82;3.08;;;13.90;29.80;;;;;;5093099;28;20024;-84
2021/03/30 08:27:36;;;;;;;6.22;2.65;;;14.00;29.50;;;;;;5092111;28;20035;-84
2021/03/30 08:30:11;;;;;;;5.80;2.78;;;14.00;29.70;;;;;;5093002;28;20106;-83
2021/03/30 08:32:50;;;;;;;10.05;3.72;;;13.60;30.00;;;;;;5092280;28;20017;-83
2021/03/30 08:35:27;;;;;;;8.20;3.47;;;13.30;30.60;;;;;;5099414;28;20102;-84
2021/03/30 08:37:53;;;;;;;9.15;4.57;;;13.60;30.90;;;;;;5101743;28;20504;-83
2021/03/30 08:40:34;;;;;;;5.68;3.08;;;13.80;30.70;;;;;;5097548;28;20039;-83
2021/03/30 08:43:21;;;;;;;9.10;3.28;;;14.50;30.10;;;;;;5100376;28;20028;-84
2021/03/30 08:46:05;;;;;;;5.28;3.15;;;14.10;30.00;;;;;;5093475;28;20024;-84
2021/03/30 08:48:38;;;;;;;5.85;2.85;;;14.00;30.50;;;;;;5092701;28;20028;-82
2021/03/30 08:51:07;;;;;;;4.75;2.85;;;14.10;30.30;;;;;;5091899;28;20498;-83
2021/03/30 08:53:34;;;;;;;5.18;2.97;;;13.90;30.50;;;;;;5094658;28;20020;-84
2021/03/30 08:56:08;;;;;;;6.43;2.88;;;13.90;30.80;;;;;;5094244;28;20376;-83
2021/03/30 08:58:44;;;;;;;13.38;4.07;;;14.50;30.40;;;;;;5091937;28;20032;-83
2021/03/30 09:01:11;;;;;;;6.18;2.83;;;15.50;29.90;;;;;;5093084;28;20017;-85
2021/03/30 09:03:37;;;;;;;7.03;3.17;;;16.00;28.80;;;;;;5092789;28;20020;-84
2021/03/30 09:06:03;;;;;;;3.25;2.05;;;16.10;28.80;;;;;;5092849;28;20108;-84
2021/03/30 09:08:43;;;;;;;6.28;2.63;;;16.70;28.10;;;;;;5092872;28;20139;-84
2021/03/30 09:11:23;;;;;;;7.80;3.17;;;16.40;28.00;;;;;;5081112;28;20027;-85
2021/03/30 09:14:05;;;;;;;10.07;2.80;;;16.30;28.20;;;;;;5093973;28;20095;-84
2021/03/30 09:16:33;;;;;;;7.85;3.65;;;16.40;28.10;;;;;;5092895;28;20020;-83
2021/03/30 09:19:17;;;;;;;6.28;3.38;;;16.10;28.20;;;;;;5094533;28;20036;-85
2021/03/30 09:21:53;;;;;;;6.57;2.92;;;16.00;28.50;;;;;;5070970;28;20040;-84
2021/03/30 09:24:26;;;;;;;6.17;2.57;;;16.30;28.40;;;;;;5067682;28;20036;-84
2021/03/30 09:26:52;;;;;;;7.25;2.72;;;16.80;28.00;;;;;;5073754;28;20068;-84
2021/03/30 09:29:18;;;;;;;6.60;2.85;;;16.80;27.70;;;;;;5078711;28;20028;-84
2021/03/30 09:31:46;;;;;;;6.63;3.05;;;17.50;27.50;;;;;;5070055;28;20150;-84
2021/03/30 09:34:13;;;;;;;5.13;2.33;;;17.60;27.00;;;;;;5069945;28;20028;-84
2021/03/30 09:36:47;;;;;;;5.88;3.00;;;17.50;27.10;;;;;;5069760;28;20033;-84
2021/03/30 09:39:23;;;;;;;7.95;2.75;;;17.50;27.10;;;;;;5063142;28;20037;-84
2021/03/30 09:41:51;;;;;;;3.63;2.67;;;17.80;27.10;;;;;;5073081;28;20029;-84
2021/03/30 09:44:20;;;;;;;3.13;1.92;;;17.20;26.80;;;;;;5062597;28;20016;-84
2021/03/30 09:46:48;;;;;;;8.90;3.75;;;16.00;27.50;;;;;;5073406;28;20040;-84
2021/03/30 09:49:19;;;;;;;10.82;4.88;;;15.10;28.80;;;;;;5070679;28;20029;-85
2021/03/30 09:51:45;;;;;;;4.07;2.50;;;14.90;29.10;;;;;;5072065;28;20027;-85
2021/03/30 09:54:21;;;;;;;5.75;3.83;;;15.20;29.20;;;;;;5092265;28;20066;-85
2021/03/30 09:56:47;;;;;;;3.88;2.40;;;15.00;29.10;;;;;;5093225;28;20465;-82
2021/03/30 09:59:25;;;;;;;4.85;2.88;;;14.60;29.30;;;;;;5093504;28;20040;-83
2021/03/30 10:01:52;;;;;;;10.27;3.22;;;14.20;29.90;;;;;;5091860;28;20032;-84
2021/03/30 10:04:20;;;;;;;9.38;3.08;;;14.50;29.80;;;;;;5098484;28;20427;-82
2021/03/30 10:06:46;;;;;;;7.65;2.55;;;14.60;29.40;;;;;;5099691;28;20482;-84
2021/03/30 10:09:12;;;;;;;6.75;3.05;;;14.20;29.40;;;;;;5090432;28;20064;-83
2021/03/30 10:11:37;;;;;;;5.88;3.00;;;14.00;30.00;;;;;;5090473;28;20123;-84
2021/03/30 10:14:24;;;;;;;9.93;3.00;;;13.90;29.90;;;;;;5091668;28;20024;-84
2021/03/30 10:16:55;;;;;;;7.75;4.35;;;13.60;30.50;;;;;;5079742;28;20325;-84
2021/03/30 10:19:22;;;;;;;5.80;2.88;;;13.40;30.60;;;;;;5091995;28;20036;-83
2021/03/30 10:21:53;;;;;;;13.52;4.47;;;13.00;30.90;;;;;;5091900;28;20008;-83
2021/03/30 10:24:20;;;;;;;7.22;3.22;;;13.00;31.20;;;;;;5091890;28;20469;-83
2021/03/30 10:27:03;;;;;;;5.03;3.03;;;12.60;31.20;;;;;;5091801;28;20216;-84
2021/03/30 10:29:40;;;;;;;11.23;5.53;;;12.10;31.80;;;;;;5093474;28;20528;-85
2021/03/30 10:32:21;;;;;;;;;;;;;;;;;;;;;
2021/03/30 10:34:47;;;;;;;14.10;3.83;;;11.50;33.30;;;;;;5095529;28;20040;-83
2021/03/30 10:37:15;;;;;;;10.80;2.88;;;11.40;33.60;;;;;;5094608;28;20052;-84
2021/03/30 10:39:44;;;;;;;8.10;2.63;;;11.60;33.50;;;;;;5095528;28;20032;-82
2021/03/30 10:42:12;;;;;;;8.23;2.83;;;11.60;33.30;;;;;;5081033;28;20452;-82
2021/03/30 10:44:42;;;;;;;3.67;1.80;;;11.50;33.60;;;;;;5093877;28;20077;-84
2021/03/30 10:47:16;;;;;;;14.25;3.17;;;11.30;33.30;;;;;;5095035;28;20028;-83
2021/03/30 10:49:44;;;;;;;9.68;2.78;;;11.10;33.90;;;;;;5095175;28;20024;-84
2021/03/30 10:52:17;;;;;;;11.82;3.15;;;11.20;34.00;;;;;;5093845;28;20019;-83
2021/03/30 10:54:44;;;;;;;8.05;3.15;;;11.30;33.90;;;;;;5095251;28;20040;-86
2021/03/30 10:57:15;;;;;;;7.03;2.83;;;11.40;33.80;;;;;;5095232;28;20457;-83
2021/03/30 10:59:43;;;;;;;6.80;2.00;;;11.20;33.70;;;;;;5094461;28;20036;-83
2021/03/30 11:02:10;;;;;;;8.30;3.50;;;11.20;34.10;;;;;;5104778;28;20062;-81
2021/03/30 11:04:36;;;;;;;6.32;3.50;;;10.90;34.50;;;;;;5109350;28;20024;-83
2021/03/30 11:07:05;;;;;;;6.57;3.13;;;11.00;34.50;;;;;;5097984;28;20472;-83
2021/03/30 11:09:34;;;;;;;13.10;3.30;;;11.10;34.70;;;;;;5095564;28;20121;-84
2021/03/30 11:12:01;;;;;;;5.63;2.55;;;11.30;34.70;;;;;;5096148;28;20016;-84
2021/03/30 11:14:27;;;;;;;4.95;2.40;;;11.40;34.60;;;;;;5094627;28;20016;-83
2021/03/30 11:16:53;;;;;;;4.32;2.85;;;11.20;34.90;;;;;;5093787;28;20039;-82
2021/03/30 11:19:26;;;;;;;9.45;4.10;;;10.90;34.60;;;;;;5095401;28;20064;-82
2021/03/30 11:21:52;;;;;;;7.18;4.43;;;11.00;34.60;;;;;;5094976;28;20012;-84
2021/03/30 11:24:20;;;;;;;8.82;3.50;;;11.20;35.00;;;;;;5094948;28;20112;-84
2021/03/30 11:26:52;;;;;;;5.63;3.70;;;11.20;35.10;;;;;;5095047;28;20016;-84
2021/03/30 11:34:58;;;;;;;5.18;2.63;;;10.70;36.60;;;;;;5094853;28;20024;-84
2021/03/30 11:39:56;;;;;;;5.28;1.95;;;10.70;36.30;;;;;;5094258;28;20501;-84
2021/03/30 11:42:22;;;;;;;4.60;2.63;;;10.60;35.40;;;;;;5094144;28;20050;-85
2021/03/30 11:44:48;;;;;;;5.68;3.50;;;10.50;36.40;;;;;;5094215;28;20028;-84
2021/03/30 11:47:17;;;;;;;7.53;3.47;;;10.60;36.60;;;;;;5093763;28;20028;-83
2021/03/30 11:49:43;;;;;;;3.47;2.35;;;10.90;36.30;;;;;;5094856;28;20085;-84
2021/03/30 11:52:09;;;;;;;6.90;3.00;;;11.10;36.10;;;;;;5094703;28;20018;-84
2021/03/30 11:54:35;;;;;;;4.43;2.53;;;11.10;36.20;;;;;;5094157;28;20103;-83
2021/03/30 11:57:02;;;;;;;9.88;2.78;;;11.10;35.80;;;;;;5094015;28;20043;-84
2021/03/30 11:59:34;;;;;;;4.10;2.35;;;10.90;35.90;;;;;;5094096;28;20480;-84
2021/03/30 12:02:00;;;;;;;4.90;2.53;;;10.60;35.90;;;;;;5108198;28;20065;-83
2021/03/30 12:04:26;;;;;;;6.07;2.80;;;10.60;36.40;;;;;;5094985;28;20025;-82
2021/03/30 12:06:54;;;;;;;6.68;3.08;;;10.50;36.40;;;;;;5095403;28;20043;-84
2021/03/30 12:09:20;;;;;;;4.40;2.50;;;10.40;37.00;;;;;;5094233;28;20036;-83
2021/03/30 12:11:46;;;;;;;5.78;3.05;;;10.40;36.40;;;;;;5093692;28;20393;-82
2021/03/30 12:14:13;;;;;;;4.63;2.50;;;10.40;36.70;;;;;;5090351;28;20388;-83
2021/03/30 12:17:02;;;;;;;5.23;3.43;;;10.40;36.50;;;;;;5094390;28;20099;-85
2021/03/30 12:19:28;;;;;;;5.97;3.50;;;10.40;36.50;;;;;;5094888;28;20477;-85
2021/03/30 12:21:54;;;;;;;3.38;1.88;;;10.30;36.70;;;;;;5095448;28;20120;-82
2021/03/30 12:24:21;;;;;;;3.95;2.25;;;10.20;36.80;;;;;;5093717;28;20020;-85
2021/03/30 12:26:47;;;;;;;16.23;2.65;;;10.10;36.70;;;;;;5093331;28;20013;-84
2021/03/30 12:29:12;;;;;;;8.55;2.08;;;10.00;37.10;;;;;;5093134;28;20209;-83
2021/03/30 12:31:38;;;;;;;9.68;4.28;;;10.10;37.00;;;;;;5092072;28;20449;-83
2021/03/30 12:34:04;;;;;;;3.33;2.08;;;10.00;37.40;;;;;;5094856;28;20117;-84
2021/03/30 12:36:30;;;;;;;7.00;2.35;;;10.00;37.20;;;;;;5094525;28;20441;-83
2021/03/30 12:38:59;;;;;;;5.07;1.92;;;9.80;37.30;;;;;;5093386;28;20028;-84
2021/03/30 12:41:25;;;;;;;4.45;3.15;;;9.70;37.30;;;;;;5092620;28;20126;-83
2021/03/30 12:43:57;;;;;;;8.85;2.85;;;9.60;37.70;;;;;;5093738;28;20052;-83
2021/03/30 12:46:22;;;;;;;5.20;2.67;;;9.60;38.00;;;;;;5093788;28;20055;-84
2021/03/30 12:48:48;;;;;;;6.80;2.72;;;9.70;37.90;;;;;;5091950;28;20436;-83
2021/03/30 12:51:17;;;;;;;8.10;4.78;;;9.60;37.90;;;;;;5092796;28;20803;-83
2021/03/30 12:53:45;;;;;;;7.55;3.00;;;9.60;38.20;;;;;;5092848;28;20031;-83
2021/03/30 12:56:29;;;;;;;4.28;2.83;;;9.70;38.00;;;;;;5093084;28;20054;-83
2021/03/30 12:58:55;;;;;;;11.13;4.55;;;9.60;38.00;;;;;;5092338;28;20126;-82
2021/03/30 13:01:21;;;;;;;6.40;2.80;;;9.50;38.30;;;;;;5093991;28;20467;-82
2021/03/30 13:03:46;;;;;;;21.83;6.35;;;9.50;38.40;;;;;;5091569;28;20024;-82
2021/03/30 13:06:12;;;;;;;6.45;2.58;;;9.50;38.60;;;;;;5092452;28;20020;-84
2021/03/30 13:08:47;;;;;;;4.47;2.78;;;9.50;38.40;;;;;;5092548;28;20067;-83
2021/03/30 13:11:17;;;;;;;5.40;3.40;;;9.40;38.50;;;;;;5080398;28;20546;-83
2021/03/30 13:13:46;;;;;;;6.93;3.33;;;9.20;38.70;;;;;;5091793;28;20024;-84
2021/03/30 13:16:12;;;;;;;6.53;2.63;;;9.30;38.90;;;;;;5089060;28;20515;-84
2021/03/30 13:18:38;;;;;;;4.85;2.70;;;9.20;39.00;;;;;;5093313;28;20023;-84
2021/03/30 13:21:23;;;;;;;3.85;1.90;;;9.20;39.00;;;;;;5105267;28;20031;-83